Time;durP1;ratioP1;P1;durP2;ratioP2;P2;SDS_P1;SDS_P2;PMS_P1;PMS_P2;Temp;Humidity;BMP_temperature;BMP_pressure;BME280_temperature;BME280_humidity;BME280_pressure;Samples;Min_cycle;Max_cycle;Signal;HPM_P1;HPM_P2
2022/10/05 00:01:22;;;;;;;;;19.00;15.00;;;;;16.17;70.33;101537.84;5084369;27;45541;-62
2022/10/05 00:03:48;;;;;;;;;19.00;18.67;;;;;16.17;70.67;101541.34;5091700;27;45260;-62
2022/10/05 00:06:14;;;;;;;;;20.33;20.33;;;;;16.15;70.31;101534.31;5072787;27;45621;-63
2022/10/05 00:08:40;;;;;;;;;23.33;18.00;;;;;16.10;70.62;101531.72;5073267;27;45533;-62
2022/10/05 00:11:07;;;;;;;;;23.33;19.33;;;;;16.05;70.57;101533.53;5090363;27;45883;-62
2022/10/05 00:13:33;;;;;;;;;22.00;18.67;;;;;15.83;71.08;101503.75;5091713;27;45416;-63
2022/10/05 00:16:15;;;;;;;;;22.33;18.67;;;;;15.94;70.98;101530.94;5090455;27;46274;-63
2022/10/05 00:18:44;;;;;;;;;25.33;18.33;;;;;15.89;70.80;101530.13;5086583;27;45639;-62
2022/10/05 00:21:24;;;;;;;;;20.67;18.33;;;;;15.82;71.29;101517.84;5090429;27;45832;-62
2022/10/05 00:23:50;;;;;;;;;24.00;21.00;;;;;15.68;71.42;101507.34;5066005;27;45712;-63
2022/10/05 00:26:20;;;;;;;;;22.33;19.33;;;;;15.69;71.17;101523.19;5090962;27;45338;-63
2022/10/05 00:28:46;;;;;;;;;21.33;20.33;;;;;15.64;71.64;101519.69;5091129;27;45727;-63
2022/10/05 00:31:25;;;;;;;;;20.00;20.00;;;;;15.53;72.29;101513.59;5090266;27;46600;-60
2022/10/05 00:33:51;;;;;;;;;24.33;18.67;;;;;15.45;72.11;101505.72;5091456;27;45449;-64
2022/10/05 00:36:17;;;;;;;;;19.33;19.33;;;;;15.50;71.77;101508.34;5083806;27;45944;-63
2022/10/05 00:38:43;;;;;;;;;21.67;19.67;;;;;15.48;71.83;101510.97;5093388;27;45449;-63
2022/10/05 00:41:43;;;;;;;;;21.33;18.33;;;;;15.45;71.70;101511.00;5092166;27;45582;-62
2022/10/05 00:44:33;;;;;;;;;22.00;18.00;;;;;15.40;72.01;101501.34;5079635;27;45512;-63
2022/10/05 00:47:14;;;;;;;;;21.67;19.67;;;;;15.36;71.96;101502.28;5093358;27;45445;-63
2022/10/05 00:50:25;;;;;;;;;19.33;14.67;;;;;15.33;71.99;101503.16;5090401;27;45514;-62
2022/10/05 00:53:04;;;;;;;;;19.33;16.00;;;;;15.27;72.04;101490.84;5093632;27;45405;-62
2022/10/05 00:55:39;;;;;;;;;17.67;15.00;;;;;15.26;72.41;101501.44;5077826;27;45848;-63
2022/10/05 00:58:39;;;;;;;;;21.33;18.33;;;;;15.29;72.08;101509.34;5077775;27;45363;-63
2022/10/05 01:01:19;;;;;;;;;19.00;16.67;;;;;15.28;72.13;101502.31;5095872;27;45452;-61
2022/10/05 01:04:06;;;;;;;;;18.00;18.00;;;;;15.27;72.30;101508.47;5096037;27;45431;-64
2022/10/05 01:06:43;;;;;;;;;16.67;15.00;;;;;15.22;72.23;101500.56;5095974;27;45565;-61
2022/10/05 01:09:14;;;;;;;;;13.67;11.67;;;;;15.30;71.75;101499.66;5081275;27;45933;-61
2022/10/05 01:11:57;;;;;;;;;20.00;16.33;;;;;15.23;71.70;101502.34;5056664;28;45457;-61
2022/10/05 01:15:06;;;;;;;;;17.67;16.33;;;;;15.16;71.65;101497.06;5076149;27;46858;-62
2022/10/05 01:17:31;;;;;;;;;17.33;12.67;;;;;15.23;71.83;101504.97;5084282;27;45954;-62
2022/10/05 01:20:26;;;;;;;;;14.33;14.33;;;;;15.21;71.72;101509.38;5091456;27;45827;-62
2022/10/05 01:23:07;;;;;;;;;18.00;15.33;;;;;15.19;72.05;101507.63;5081765;27;45548;-62
2022/10/05 01:26:03;;;;;;;;;13.00;13.00;;;;;15.14;72.23;101505.03;5074591;27;47957;-62
2022/10/05 01:28:55;;;;;;;;;13.33;13.33;;;;;15.13;71.86;101502.38;5081332;27;45711;-62
2022/10/05 01:31:47;;;;;;;;;15.67;14.67;;;;;15.17;71.53;101510.28;5091583;27;45848;-61
2022/10/05 01:34:29;;;;;;;;;15.00;12.67;;;;;15.12;71.96;101498.00;5080940;27;45344;-61
2022/10/05 01:37:13;;;;;;;;;14.33;12.67;;;;;15.02;72.11;101483.97;5095584;27;45397;-61
2022/10/05 01:40:05;;;;;;;;;15.33;13.00;;;;;15.16;71.97;101491.78;5081502;27;45521;-63
2022/10/05 01:42:47;;;;;;;;;13.33;12.00;;;;;15.21;71.49;101493.56;5084065;27;45444;-62
2022/10/05 01:45:30;;;;;;;;;11.67;10.67;;;;;15.18;71.27;101496.19;5092003;27;45833;-61
2022/10/05 01:48:21;;;;;;;;;13.00;13.00;;;;;15.13;71.36;101482.13;5076055;27;45431;-62
2022/10/05 01:51:16;;;;;;;;;11.33;11.00;;;;;15.19;71.28;101490.03;5020483;27;45593;-62
2022/10/05 01:54:01;;;;;;;;;12.33;10.67;;;;;15.24;70.71;101496.16;5094911;27;45799;-62
2022/10/05 01:57:02;;;;;;;;;13.00;10.67;;;;;15.07;71.44;101482.19;5093264;27;45592;-61
2022/10/05 01:59:46;;;;;;;;;14.67;11.33;;;;;15.10;71.24;101487.44;5075867;27;45772;-62
2022/10/05 02:02:17;;;;;;;;;10.67;10.00;;;;;15.04;71.34;101476.91;5095271;27;45817;-62
2022/10/05 02:04:54;;;;;;;;;15.67;11.33;;;;;15.05;71.04;101474.28;5094647;27;45523;-62
2022/10/05 02:07:48;;;;;;;;;18.33;13.33;;;;;14.81;71.15;101433.06;5095708;27;45730;-62
2022/10/05 02:10:22;;;;;;;;;13.67;10.67;;;;;15.00;71.37;101468.13;5089745;27;45515;-62
2022/10/05 02:12:53;;;;;;;;;10.33;9.00;;;;;15.00;71.17;101464.63;5095225;27;45388;-62
2022/10/05 02:15:28;;;;;;;;;11.00;11.00;;;;;15.02;71.32;101466.38;5083646;27;45489;-61
2022/10/05 02:18:05;;;;;;;;;13.00;11.00;;;;;15.00;70.95;101468.13;5061040;28;45491;-61
2022/10/05 02:20:34;;;;;;;;;11.00;8.33;;;;;15.04;71.05;101466.34;5088904;27;45445;-62
2022/10/05 02:23:06;;;;;;;;;7.33;7.33;;;;;14.97;70.82;101462.88;5076563;27;45389;-61
2022/10/05 02:25:36;;;;;;;;;16.00;11.67;;;;;14.96;71.46;101468.16;5056730;28;45568;-62
2022/10/05 02:28:12;;;;;;;;;8.33;8.33;;;;;14.95;71.01;101455.84;5080777;27;45322;-62
2022/10/05 02:30:43;;;;;;;;;10.00;7.67;;;;;15.00;71.38;101454.94;5075422;27;45419;-62
2022/10/05 02:33:30;;;;;;;;;10.00;9.33;;;;;14.95;71.25;101450.56;5083562;27;45567;-62
2022/10/05 02:36:16;;;;;;;;;12.33;10.33;;;;;14.93;71.52;101455.00;5074384;27;45551;-61
2022/10/05 02:38:59;;;;;;;;;11.33;10.00;;;;;14.88;71.33;101444.47;5073924;27;45358;-62
2022/10/05 02:41:43;;;;;;;;;14.67;12.00;;;;;14.82;71.35;101441.84;5075218;27;46305;-62
2022/10/05 02:44:31;;;;;;;;;10.33;7.67;;;;;14.79;71.86;101441.88;5088397;27;45421;-62
2022/10/05 02:47:15;;;;;;;;;8.00;7.67;;;;;14.79;71.40;101440.09;5094627;27;45300;-63
2022/10/05 02:49:57;;;;;;;;;9.67;7.33;;;;;14.76;71.78;101433.94;5081016;27;45766;-62
2022/10/05 02:52:45;;;;;;;;;10.33;8.33;;;;;14.82;71.75;101434.78;5067932;27;46018;-62
2022/10/05 02:55:23;;;;;;;;;11.00;9.67;;;;;14.83;71.26;101433.06;5085914;27;45325;-63
2022/10/05 02:58:12;;;;;;;;;8.67;8.67;;;;;14.82;71.57;101434.78;5084283;27;45477;-63
2022/10/05 03:00:48;;;;;;;;;12.67;10.00;;;;;14.79;71.57;101424.28;5069304;27;45527;-62
2022/10/05 03:03:29;;;;;;;;;9.67;9.00;;;;;14.69;71.68;101412.03;5093221;27;46225;-62
2022/10/05 03:05:59;;;;;;;;;10.33;9.00;;;;;14.80;71.98;101433.91;5082546;27;45522;-61
2022/10/05 03:08:47;;;;;;;;;7.33;7.33;;;;;14.82;71.35;101431.28;5074089;27;45558;-63
2022/10/05 03:11:39;;;;;;;;;7.67;7.67;;;;;14.69;71.33;101417.28;5075511;27;45659;-61
2022/10/05 03:14:20;;;;;;;;;9.67;8.33;;;;;14.69;71.18;101419.03;5058574;27;45836;-61
2022/10/05 03:17:04;;;;;;;;;7.00;7.00;;;;;14.80;71.19;101426.00;5088363;27;45891;-64
2022/10/05 03:20:06;;;;;;;;;11.33;7.00;;;;;14.75;71.47;101430.44;5086541;27;45418;-61
2022/10/05 03:22:50;;;;;;;;;10.67;8.67;;;;;14.74;71.26;101423.41;5083881;27;45594;-62
2022/10/05 03:25:43;;;;;;;;;10.33;7.67;;;;;14.75;70.79;101422.53;5093613;27;45821;-62
2022/10/05 03:28:23;;;;;;;;;13.33;11.33;;;;;14.71;71.04;101419.91;5084786;27;45786;-62
2022/10/05 03:31:03;;;;;;;;;12.00;10.00;;;;;14.55;71.62;101419.09;5093280;27;45393;-62
2022/10/05 03:33:44;;;;;;;;;8.33;8.33;;;;;14.47;72.05;101415.56;5078817;27;45800;-62
2022/10/05 03:36:25;;;;;;;;;9.33;8.00;;;;;14.48;71.56;101409.44;5093432;27;45756;-62
2022/10/05 03:39:38;;;;;;;;;9.33;9.33;;;;;14.41;72.13;101406.81;5081195;27;45354;-62
2022/10/05 03:42:12;;;;;;;;;14.33;12.00;;;;;14.36;71.76;101408.59;5074892;27;45530;-61
2022/10/05 03:45:04;;;;;;;;;13.33;9.67;;;;;14.34;72.18;101407.72;5073253;27;45819;-61
2022/10/05 03:47:48;;;;;;;;;9.00;9.00;;;;;14.28;71.84;101404.22;5080772;27;45855;-61
2022/10/05 03:50:52;;;;;;;;;11.00;11.00;;;;;14.24;72.13;101399.81;5074591;27;45594;-62
2022/10/05 03:53:27;;;;;;;;;10.33;10.00;;;;;14.27;72.42;101399.84;5034430;28;45907;-62
2022/10/05 03:56:15;;;;;;;;;16.33;11.33;;;;;14.27;71.88;101395.44;5090199;27;45388;-62
2022/10/05 03:59:18;;;;;;;;;8.33;7.67;;;;;14.24;72.06;101395.44;5079571;27;45609;-62
2022/10/05 04:02:00;;;;;;;;;10.00;9.33;;;;;14.17;72.34;101398.97;5093136;27;45480;-62
2022/10/05 04:04:41;;;;;;;;;12.33;9.00;;;;;14.16;72.33;101397.22;5074450;27;45373;-63
2022/10/05 04:07:21;;;;;;;;;9.00;8.67;;;;;14.09;72.54;101395.47;5078894;27;45624;-62
2022/10/05 04:09:51;;;;;;;;;13.67;12.33;;;;;14.05;72.31;101397.25;5079824;27;45404;-62
2022/10/05 04:12:25;;;;;;;;;9.33;9.33;;;;;14.06;72.29;101400.75;5076136;27;45484;-62
2022/10/05 04:15:21;;;;;;;;;11.00;9.67;;;;;14.03;72.45;101403.41;5083520;27;45464;-63
2022/10/05 04:17:54;;;;;;;;;10.33;9.33;;;;;13.96;72.58;101398.13;5095937;27;45700;-63
2022/10/05 04:20:45;;;;;;;;;10.33;8.67;;;;;13.91;72.98;101399.88;5077958;27;47956;-63
2022/10/05 04:23:14;;;;;;;;;13.33;10.00;;;;;13.89;72.97;101409.53;5089504;27;45779;-61
2022/10/05 04:25:47;;;;;;;;;10.00;8.67;;;;;13.84;73.52;101394.66;5081039;27;45670;-62
2022/10/05 04:28:47;;;;;;;;;10.67;9.33;;;;;13.84;73.34;101399.91;5084881;27;45529;-63
2022/10/05 04:31:29;;;;;;;;;11.00;9.33;;;;;13.83;73.33;101390.25;5095122;27;46591;-62
2022/10/05 04:34:08;;;;;;;;;12.67;10.67;;;;;13.70;73.67;101387.63;5082887;27;45481;-63
2022/10/05 04:36:45;;;;;;;;;9.33;9.33;;;;;13.78;73.30;101390.25;5082077;27;45876;-63
2022/10/05 04:39:13;;;;;;;;;9.67;7.67;;;;;13.77;73.55;101396.41;5095431;27;45404;-63
2022/10/05 04:41:42;;;;;;;;;11.33;11.00;;;;;13.75;73.50;101392.88;5088248;27;46046;-62
2022/10/05 04:44:07;;;;;;;;;9.67;8.33;;;;;13.79;73.60;101386.75;5093922;27;46194;-62
2022/10/05 04:46:36;;;;;;;;;9.67;8.67;;;;;13.79;73.71;101397.28;5077462;27;45614;-62
2022/10/05 04:49:16;;;;;;;;;10.33;9.33;;;;;13.79;73.31;101389.38;5092870;27;45525;-62
2022/10/05 04:52:04;;;;;;;;;11.67;7.67;;;;;13.76;73.41;101392.00;5087232;27;46743;-62
2022/10/05 04:55:18;;;;;;;;;8.67;7.67;;;;;13.76;73.12;101386.72;5087526;27;45512;-63
2022/10/05 04:57:53;;;;;;;;;15.33;9.33;;;;;13.69;73.48;101379.72;5080643;27;45654;-63
2022/10/05 05:00:22;;;;;;;;;10.00;7.67;;;;;13.68;73.74;101380.59;5089070;27;45509;-63
2022/10/05 05:02:53;;;;;;;;;13.67;9.33;;;;;13.61;73.96;101384.97;5081739;27;45479;-63
2022/10/05 05:05:39;;;;;;;;;7.67;7.67;;;;;13.63;73.88;101377.09;5088507;27;45385;-63
2022/10/05 05:08:32;;;;;;;;;8.67;8.00;;;;;13.56;73.73;101374.47;5086070;27;45841;-63
2022/10/05 05:11:34;;;;;;;;;9.33;9.33;;;;;13.56;74.16;101373.59;5075545;27;45589;-64
2022/10/05 05:14:00;;;;;;;;;7.67;7.67;;;;;13.50;74.21;101374.47;5082683;27;47008;-62
2022/10/05 05:16:40;;;;;;;;;12.00;10.00;;;;;13.42;74.32;101370.94;5088197;27;45398;-63
2022/10/05 05:19:18;;;;;;;;;11.33;9.67;;;;;13.42;74.37;101372.72;5086143;27;45795;-62
2022/10/05 05:22:08;;;;;;;;;14.00;11.67;;;;;13.39;74.09;101368.31;5084280;27;45488;-63
2022/10/05 05:24:52;;;;;;;;;9.33;9.33;;;;;13.29;74.56;101369.19;5070586;28;46990;-63
2022/10/05 05:27:36;;;;;;;;;9.67;9.67;;;;;13.27;74.48;101363.03;5095124;27;45433;-63
2022/10/05 05:30:16;;;;;;;;;9.67;9.67;;;;;13.28;74.88;101356.91;5070055;27;46164;-62
2022/10/05 05:32:59;;;;;;;;;16.00;11.00;;;;;13.26;74.68;101356.84;5076004;27;45305;-62
2022/10/05 05:35:47;;;;;;;;;11.50;9.00;;;;;13.27;74.83;101357.75;5074824;27;46048;-62
2022/10/05 05:38:32;;;;;;;;;10.00;10.00;;;;;13.27;74.97;101344.63;5079644;27;45428;-62
2022/10/05 05:41:09;;;;;;;;;9.00;9.00;;;;;13.25;74.99;101355.13;5074611;27;45476;-63
2022/10/05 05:43:35;;;;;;;;;14.00;13.33;;;;;13.19;75.24;101354.22;5078807;27;45550;-63
2022/10/05 05:46:25;;;;;;;;;11.67;11.67;;;;;13.09;75.21;101362.09;5074139;27;45394;-63
2022/10/05 05:48:52;;;;;;;;;10.00;10.00;;;;;13.10;75.38;101353.34;5074724;27;45475;-62
2022/10/05 05:51:32;;;;;;;;;9.33;8.67;;;;;13.11;75.09;101348.97;5074378;27;45350;-64
2022/10/05 05:54:06;;;;;;;;;10.67;10.67;;;;;13.08;75.15;101349.84;5074911;27;45299;-63
2022/10/05 05:56:38;;;;;;;;;12.67;10.00;;;;;13.10;75.48;101355.13;5073485;27;46276;-62
2022/10/05 05:59:16;;;;;;;;;11.00;9.00;;;;;13.14;75.38;101359.47;5056682;27;45564;-62
2022/10/05 06:01:50;;;;;;;;;13.33;10.33;;;;;13.14;75.02;101354.22;5074390;27;45558;-62
2022/10/05 06:04:30;;;;;;;;;9.00;9.00;;;;;13.11;75.24;101357.72;5056345;27;45482;-63
2022/10/05 06:07:00;;;;;;;;;10.33;10.33;;;;;13.17;74.80;101356.88;5048075;27;46790;-63
2022/10/05 06:09:36;;;;;;;;;14.67;11.33;;;;;13.11;75.12;101338.44;5073855;27;45906;-64
2022/10/05 06:12:08;;;;;;;;;8.67;8.67;;;;;13.13;74.68;101345.47;5077234;27;45522;-63
2022/10/05 06:14:36;;;;;;;;;14.00;10.00;;;;;13.18;74.76;101360.38;5088041;27;45520;-62
2022/10/05 06:17:19;;;;;;;;;11.67;9.67;;;;;13.16;74.42;101352.47;5091186;27;45610;-62
2022/10/05 06:19:47;;;;;;;;;10.67;10.33;;;;;13.18;74.86;101353.34;5086029;27;45425;-62
2022/10/05 06:22:40;;;;;;;;;15.33;13.33;;;;;13.17;74.69;101349.00;5076121;27;45677;-62
2022/10/05 06:25:12;;;;;;;;;17.25;16.00;;;;;13.18;74.81;101355.13;5084194;27;45488;-63
2022/10/05 06:28:00;;;;;;;;;17.25;17.25;;;;;13.13;74.93;101361.25;5086554;27;46255;-62
2022/10/05 06:30:37;;;;;;;;;16.00;13.25;;;;;13.13;75.20;101358.63;5093442;27;45458;-63
2022/10/05 06:33:44;;;;;;;;;17.00;17.00;;;;;13.11;74.84;101351.59;5088463;27;45362;-62
2022/10/05 06:36:32;;;;;;;;;16.50;14.75;;;;;13.19;74.93;101365.63;5082211;27;45519;-63
2022/10/05 06:39:31;;;;;;;;;19.50;14.00;;;;;13.22;74.38;101354.25;5078376;27;45523;-62
2022/10/05 06:42:26;;;;;;;;;17.25;16.00;;;;;13.21;74.36;101361.25;5061328;27;45909;-63
2022/10/05 06:45:04;;;;;;;;;18.00;15.75;;;;;13.29;75.02;101362.19;5086804;27;45547;-65
2022/10/05 06:47:51;;;;;;;;;21.75;17.50;;;;;13.37;74.52;101364.81;5088476;27;45716;-63
2022/10/05 06:50:45;;;;;;;;;21.25;17.25;;;;;13.37;74.08;101354.28;5089949;27;45422;-62
2022/10/05 06:53:27;;;;;;;;;20.00;16.75;;;;;13.51;73.51;101360.41;5078412;27;45429;-65
2022/10/05 06:56:11;;;;;;;;;18.00;15.75;;;;;13.57;73.21;101365.69;5091661;27;45694;-64
2022/10/05 06:58:46;;;;;;;;;21.00;19.75;;;;;13.60;73.38;101353.41;5081498;27;45573;-63
2022/10/05 07:01:17;;;;;;;;;21.75;17.00;;;;;13.64;72.90;101355.16;5081136;27;46518;-62
2022/10/05 07:03:50;;;;;;;;;18.50;17.50;;;;;13.71;72.91;101349.00;5060254;27;45422;-63
2022/10/05 07:06:23;;;;;;;;;23.75;19.25;;;;;13.78;72.52;101354.25;5081831;27;45751;-63
2022/10/05 07:09:10;;;;;;;;;23.25;20.50;;;;;13.82;72.78;101351.63;5082085;27;45823;-63
2022/10/05 07:11:36;;;;;;;;;22.75;20.50;;;;;13.88;72.50;101347.25;5073076;27;45310;-62
2022/10/05 07:14:14;;;;;;;;;20.75;18.50;;;;;13.92;72.62;101348.09;5054798;28;45390;-64
2022/10/05 07:16:48;;;;;;;;;19.75;18.25;;;;;13.99;72.36;101353.34;5079153;27;45547;-62
2022/10/05 07:19:20;;;;;;;;;17.00;14.50;;;;;14.11;72.19;101352.44;5089391;27;45978;-63
2022/10/05 07:22:24;;;;;;;;;27.00;19.00;;;;;14.16;71.97;101357.69;5065578;27;46995;-63
2022/10/05 07:25:09;;;;;;;;;16.33;15.67;;;;;14.21;72.08;101366.44;5077810;27;45511;-63
2022/10/05 07:27:45;;;;;;;;;17.00;17.00;;;;;14.29;72.36;101363.81;5081127;27;45654;-63
2022/10/05 07:30:13;;;;;;;;;23.00;18.75;;;;;14.40;72.30;101377.81;5075061;27;45416;-63
2022/10/05 07:33:08;;;;;;;;;17.00;14.67;;;;;14.47;72.08;101357.59;5093058;27;46170;-63
2022/10/05 07:38:42;;;;;;;;;21.25;19.50;;;;;14.74;72.07;101380.38;5093704;27;45832;-63
2022/10/05 07:41:34;;;;;;;;;17.00;15.33;;;;;14.83;71.78;101372.41;5084942;27;45909;-63
2022/10/05 07:44:18;;;;;;;;;14.67;14.67;;;;;14.89;71.79;101367.06;5058134;27;46784;-63
2022/10/05 07:47:22;;;;;;;;;22.33;15.67;;;;;15.11;71.30;101380.13;5079914;27;45466;-63
2022/10/05 07:50:10;;;;;;;;;20.33;17.00;;;;;15.21;70.36;101379.19;5041032;27;45524;-63
2022/10/05 07:52:40;;;;;;;;;13.33;12.00;;;;;15.37;70.48;101383.47;5074579;27;45549;-62
2022/10/05 07:55:19;;;;;;;;;14.67;13.67;;;;;15.42;70.35;101388.72;5092543;27;45773;-62
2022/10/05 07:58:11;;;;;;;;;13.67;12.00;;;;;15.58;69.55;101386.84;5092422;27;45386;-63
2022/10/05 08:01:01;;;;;;;;;13.33;10.33;;;;;15.80;69.25;101385.81;5092769;27;45366;-63
2022/10/05 08:03:55;;;;;;;;;10.00;8.33;;;;;15.92;68.75;101390.06;5092879;27;45537;-64
2022/10/05 08:06:23;;;;;;;;;11.67;11.67;;;;;15.95;68.44;101376.84;5091634;27;47595;-63
2022/10/05 08:09:00;;;;;;;;;9.33;9.33;;;;;15.97;68.23;101368.88;5087201;27;45504;-63
2022/10/05 08:11:40;;;;;;;;;13.67;12.00;;;;;16.13;67.80;101377.53;5081074;27;45616;-63
2022/10/05 08:14:15;;;;;;;;;8.00;7.00;;;;;16.41;67.42;101383.41;5083004;27;45432;-62
2022/10/05 08:16:45;;;;;;;;;6.67;6.67;;;;;16.47;66.99;101364.81;5092223;27;45550;-63
2022/10/05 08:19:21;;;;;;;;;9.33;7.33;;;;;16.67;66.59;101375.13;5092877;27;45486;-63
2022/10/05 08:21:57;;;;;;;;;10.67;9.33;;;;;16.78;66.21;101367.06;5074188;27;45448;-63
2022/10/05 08:24:50;;;;;;;;;8.00;7.00;;;;;16.96;65.83;101377.41;5093336;27;45415;-63
2022/10/05 08:27:29;;;;;;;;;7.33;7.00;;;;;16.99;65.55;101379.13;5078202;27;46285;-62
2022/10/05 08:30:00;;;;;;;;;9.67;9.33;;;;;17.17;65.55;101382.38;5092133;27;45578;-63
2022/10/05 08:32:58;;;;;;;;;9.67;7.67;;;;;17.39;64.90;101371.47;5084792;27;45390;-62
2022/10/05 08:35:43;;;;;;;;;6.00;5.33;;;;;17.73;64.27;101387.69;5052466;27;45361;-62
2022/10/05 08:38:15;;;;;;;;;7.00;6.67;;;;;17.90;63.67;101379.47;5057839;28;47078;-63
2022/10/05 08:41:04;;;;;;;;;6.33;5.67;;;;;17.85;63.08;101381.34;5082808;27;45479;-62
2022/10/05 08:43:47;;;;;;;;;6.33;6.33;;;;;18.01;63.15;101381.94;5065184;27;45771;-63
2022/10/05 08:46:32;;;;;;;;;6.00;5.67;;;;;18.09;63.28;101387.09;5082869;27;45530;-63
2022/10/05 08:49:18;;;;;;;;;7.33;5.00;;;;;18.17;63.18;101385.16;5086041;27;45740;-64
2022/10/05 08:52:13;;;;;;;;;5.67;4.00;;;;;18.18;63.37;101381.63;5080447;27;45421;-63
2022/10/05 08:54:44;;;;;;;;;6.00;6.00;;;;;18.05;63.80;101377.44;5084047;27;45525;-63
2022/10/05 08:57:29;;;;;;;;;5.67;5.00;;;;;17.98;63.41;101376.66;5084642;27;45577;-62
2022/10/05 09:00:12;;;;;;;;;5.67;4.33;;;;;17.76;64.22;101384.97;5055769;28;45752;-63
2022/10/05 09:02:46;;;;;;;;;5.33;4.00;;;;;17.66;64.87;101391.34;5075321;27;45778;-63
2022/10/05 09:05:41;;;;;;;;;5.00;5.00;;;;;17.56;64.92;101387.09;5080952;27;45414;-62
2022/10/05 09:08:34;;;;;;;;;5.67;4.00;;;;;17.58;65.13;101398.53;5077276;27;45886;-62
2022/10/05 09:11:11;;;;;;;;;6.33;4.33;;;;;17.60;65.32;101394.94;5094948;27;45632;-62
2022/10/05 09:13:58;;;;;;;;;8.00;6.00;;;;;17.63;65.34;101402.00;5076485;27;45579;-62
2022/10/05 09:16:53;;;;;;;;;5.67;5.00;;;;;17.65;65.42;101386.91;5096060;27;45598;-62
2022/10/05 09:20:13;;;;;;;;;6.00;6.00;;;;;17.74;65.23;101394.72;5073031;27;45433;-63
2022/10/05 09:22:45;;;;;;;;;6.67;5.33;;;;;17.83;65.37;101384.91;4999432;28;46128;-62
2022/10/05 09:25:49;;;;;;;;;6.33;6.00;;;;;17.82;65.46;101393.75;5081758;27;45643;-64
2022/10/05 09:28:43;;;;;;;;;10.33;7.33;;;;;17.94;65.25;101393.56;5043713;28;45740;-63
2022/10/05 09:31:51;;;;;;;;;6.33;6.00;;;;;18.00;64.69;101391.63;5049278;27;45405;-62
2022/10/05 09:34:31;;;;;;;;;10.00;5.67;;;;;18.10;64.34;101391.47;5084334;27;45859;-64
2022/10/05 09:37:19;;;;;;;;;7.00;7.00;;;;;18.11;63.48;101395.88;5077753;27;45526;-63
2022/10/05 09:39:59;;;;;;;;;8.00;7.00;;;;;18.04;63.80;101400.44;5074169;27;45604;-63
2022/10/05 09:42:54;;;;;;;;;4.67;4.67;;;;;18.14;63.29;101401.13;5058158;27;45674;-63
2022/10/05 09:45:22;;;;;;;;;6.67;6.67;;;;;18.14;62.86;101402.00;5094515;27;47058;-64
2022/10/05 09:48:20;;;;;;;;;6.00;6.00;;;;;18.31;62.51;101404.31;5094874;27;45960;-62
2022/10/05 09:51:24;;;;;;;;;8.67;5.00;;;;;18.65;61.77;101404.53;5094454;27;45487;-62
2022/10/05 09:54:22;;;;;;;;;5.33;5.33;;;;;18.88;60.88;101403.19;5091146;27;45437;-62
2022/10/05 09:56:58;;;;;;;;;4.33;4.33;;;;;19.24;60.64;101397.94;5091345;27;45523;-62
2022/10/05 09:59:51;;;;;;;;;6.00;6.00;;;;;19.70;58.89;101391.56;5091362;27;45858;-62
2022/10/05 10:02:37;;;;;;;;;6.00;6.00;;;;;20.21;57.55;101393.72;5092080;27;45848;-62
2022/10/05 10:05:33;;;;;;;;;4.67;4.67;;;;;20.38;55.90;101377.28;5092328;27;45355;-62
2022/10/05 10:08:21;;;;;;;;;3.67;3.67;;;;;20.74;54.64;101390.50;5072650;27;48037;-62
2022/10/05 10:11:22;;;;;;;;;6.00;6.00;;;;;20.43;55.34;101387.78;5089067;27;45511;-62
2022/10/05 10:14:08;;;;;;;;;5.33;4.00;;;;;20.31;56.30;101395.22;5037232;27;45320;-62
2022/10/05 10:16:45;;;;;;;;;4.33;4.33;;;;;20.20;55.87;101381.34;5091439;27;45825;-62
2022/10/05 10:19:41;;;;;;;;;8.67;6.33;;;;;19.82;55.04;101348.69;5087345;27;46166;-62
2022/10/05 10:22:33;;;;;;;;;5.33;5.00;;;;;20.50;54.53;101384.03;5071410;27;45545;-62
2022/10/05 10:25:33;;;;;;;;;7.67;4.33;;;;;21.44;50.79;101368.78;5091289;27;45753;-62
2022/10/05 10:28:34;;;;;;;;;4.00;4.00;;;;;22.14;49.21;101364.56;5091309;27;45401;-62
2022/10/05 10:31:16;;;;;;;;;4.33;3.67;;;;;22.03;48.84;101378.31;5090877;27;46992;-63
2022/10/05 10:34:15;;;;;;;;;5.33;5.00;;;;;22.08;50.11;101378.16;5088231;27;45526;-63
2022/10/05 10:37:05;;;;;;;;;4.67;3.67;;;;;22.76;49.29;101372.06;5091316;27;45562;-62
2022/10/05 10:39:59;;;;;;;;;4.33;4.33;;;;;22.17;50.46;101368.00;5091105;27;45315;-63
2022/10/05 10:42:33;;;;;;;;;4.00;4.00;;;;;21.88;50.68;101368.16;5070081;27;45472;-63
2022/10/05 10:45:39;;;;;;;;;3.00;3.00;;;;;21.47;52.16;101371.31;5091241;27;45606;-60
2022/10/05 10:48:29;;;;;;;;;4.33;3.67;;;;;21.09;52.28;101383.19;5090916;27;45713;-63
2022/10/05 10:51:07;;;;;;;;;4.00;4.00;;;;;20.98;52.10;101380.00;5071626;27;45548;-63
2022/10/05 10:53:41;;;;;;;;;5.67;5.00;;;;;20.82;52.74;101372.47;5090573;27;46581;-63
2022/10/05 10:56:38;;;;;;;;;5.00;4.67;;;;;20.96;52.64;101375.59;5091461;27;45563;-63
2022/10/05 10:59:41;;;;;;;;;19.67;13.67;;;;;21.35;52.64;101366.38;5072924;27;45593;-63
2022/10/05 11:02:49;;;;;;;;;31.67;27.33;;;;;21.53;52.13;101351.59;5091850;27;45473;-64
2022/10/05 11:05:48;;;;;;;;;40.67;31.00;;;;;21.56;51.59;101349.69;5052130;27;46406;-61
2022/10/05 11:08:17;;;;;;;;;21.67;18.33;;;;;24.00;47.54;101352.72;5089550;27;45675;-62
2022/10/05 11:10:52;;;;;;;;;11.33;9.33;;;;;26.22;42.70;101329.44;5090547;27;45941;-62
2022/10/05 11:13:37;;;;;;;;;6.00;6.00;;;;;27.21;39.52;101327.50;5090147;27;45535;-61
2022/10/05 11:16:26;;;;;;;;;5.25;3.75;;;;;29.77;35.93;101315.72;5106338;27;46802;-61
2022/10/05 11:19:18;;;;;;;;;6.50;6.00;;;;;31.35;32.45;101303.38;5089493;27;45487;-64
2022/10/05 11:21:58;;;;;;;;;5.00;4.00;;;;;32.31;31.78;101298.50;5086899;27;45524;-63
2022/10/05 11:24:40;;;;;;;;;9.25;9.25;;;;;32.71;30.31;101313.38;5089496;27;45544;-61
2022/10/05 11:27:15;;;;;;;;;5.20;4.40;;;;;33.68;29.01;101297.97;5090959;27;45700;-62
2022/10/05 11:30:00;;;;;;;;;3.00;3.00;;;;;34.88;27.82;101300.00;5087604;27;45357;-62
2022/10/05 11:33:00;;;;;;;;;5.20;4.00;;;;;34.89;25.77;101294.44;5089177;27;45722;-62
2022/10/05 11:36:03;;;;;;;;;2.00;2.00;;;;;34.34;25.65;101273.13;5089492;27;45812;-63
2022/10/05 11:39:03;;;;;;;;;4.00;3.40;;;;;34.66;26.27;101282.94;5089032;27;46728;-63
2022/10/05 11:41:56;;;;;;;;;3.80;3.80;;;;;34.99;26.53;101284.41;5085425;27;45591;-63
2022/10/05 11:45:02;;;;;;;;;3.00;3.00;;;;;34.93;26.38;101278.66;5089632;27;45856;-62
2022/10/05 11:47:52;;;;;;;;;4.60;3.20;;;;;34.56;26.58;101290.22;5089394;27;45705;-62
2022/10/05 11:50:53;;;;;;;;;5.60;4.00;;;;;34.78;26.05;101279.09;5037567;27;45754;-62
2022/10/05 11:53:38;;;;;;;;;3.00;3.00;;;;;34.63;26.27;101254.16;5088022;27;45426;-62
2022/10/05 11:56:33;;;;;;;;;5.00;4.20;;;;;34.58;26.35;101272.75;5068250;27;45386;-62
2022/10/05 11:59:20;;;;;;;;;3.40;3.00;;;;;33.92;27.13;101269.63;5088251;27;45386;-63
2022/10/05 12:02:03;;;;;;;;;3.00;2.20;;;;;33.51;27.68;101277.66;5069088;27;46162;-62
2022/10/05 12:04:42;;;;;;;;;2.00;2.00;;;;;33.31;28.38;101282.09;5086448;27;45937;-62
2022/10/05 12:07:18;;;;;;;;;3.00;3.00;;;;;32.64;28.05;101274.19;5084594;27;45617;-63
2022/10/05 12:10:13;;;;;;;;;2.40;2.40;;;;;31.63;29.72;101266.91;5084585;27;45442;-63
2022/10/05 12:13:05;;;;;;;;;2.60;2.60;;;;;31.34;30.42;101271.84;5085631;27;46674;-63
2022/10/05 12:15:51;;;;;;;;;2.60;2.60;;;;;30.85;31.41;101274.63;5087864;27;45747;-62
2022/10/05 12:18:29;;;;;;;;;3.00;3.00;;;;;30.36;32.36;101275.53;5086464;27;45500;-63
2022/10/05 12:21:09;;;;;;;;;3.00;3.00;;;;;29.47;33.42;101265.59;5088978;27;45831;-61
2022/10/05 12:23:50;;;;;;;;;4.60;3.00;;;;;28.66;34.68;101281.81;5070728;27;45825;-61
2022/10/05 12:26:25;;;;;;;;;3.60;2.80;;;;;28.37;35.57;101273.75;5087073;27;45453;-62
2022/10/05 12:28:54;;;;;;;;;4.00;4.00;;;;;27.90;36.53;101274.94;5088273;27;45697;-63
2022/10/05 12:31:29;;;;;;;;;3.75;3.00;;;;;27.26;37.73;101271.63;5086184;27;45392;-62
2022/10/05 12:34:31;;;;;;;;;3.00;3.00;;;;;27.61;38.08;101272.19;5072382;27;48021;-62